PDT,Max TemperatureF,Mean TemperatureF,Min TemperatureF,Max Dew PointF,MeanDew PointF,Min DewpointF,Max Humidity, Mean Humidity, Min Humidity, Max Sea Level PressureIn, Mean Sea Level PressureIn, Min Sea Level PressureIn, Max VisibilityMiles, Mean VisibilityMiles, Min VisibilityMiles, Max Wind SpeedMPH, Mean Wind SpeedMPH, Max Gust SpeedMPH,PrecipitationIn, CloudCover, Events, WindDirDegrees
2013-9-1,84,71,57,60,56,52,86,62,37,29.91,29.88,29.84,10,10,10,21,11,31,0.00,2,,251
2013-9-2,83,72,61,61,60,57,93,69,45,29.93,29.88,29.84,10,10,10,21,11,25,0.00,2,,246
2013-9-3,84,68,52,57,54,50,93,63,33,29.96,29.92,29.89,10,10,10,21,8,24,0.00,0,Fog,240
2013-9-4,85,67,48,57,53,47,96,65,34,30.00,29.96,29.89,10,7,0,22,8,25,0.00,0,Fog,238
2013-9-5,84,68,52,56,54,51,93,63,32,29.97,29.94,29.90,10,10,10,17,8,22,0.00,0,,235
2013-9-6,91,70,48,55,49,45,93,58,23,29.96,29.89,29.80,10,10,10,14,4,17,0.00,0,,214
2013-9-7,96,73,49,60,51,43,84,50,16,29.86,29.81,29.76,10,10,10,16,5,18,0.00,0,,214
2013-9-8,86,68,50,59,56,52,100,69,37,29.87,29.80,29.72,10,9,1,12,5,14,0.00,0,,183
2013-9-9,86,69,51,60,57,50,97,69,40,29.79,29.73,29.67,10,10,10,16,7,21,0.00,0,,192
2013-9-10,74,64,54,60,57,54,93,77,61,29.88,29.79,29.71,10,10,10,28,13,35,0.00,4,,244
2013-9-11,79,71,63,59,57,56,78,64,50,29.98,29.93,29.87,10,10,10,22,12,22,0.00,5,,257
2013-9-12,79,68,57,61,57,54,90,69,48,29.97,29.90,29.84,10,10,6,20,9,22,0.00,4,,259
2013-9-13,77,67,56,58,55,54,93,72,50,29.90,29.84,29.72,10,10,10,20,9,29,0.00,4,,251
2013-9-14,79,66,53,58,54,52,93,70,47,29.82,29.76,29.69,10,10,10,18,9,33,0.00,3,,244
2013-9-15,83,66,49,59,54,50,100,69,37,29.83,29.79,29.75,10,10,9,22,12,26,0.00,2,,264
2013-9-16,80,66,52,59,55,51,100,71,42,29.89,29.82,29.74,10,7,0,21,8,35,0.00,2,Fog,247
2013-9-17,80,67,54,54,52,49,86,62,37,29.86,29.80,29.77,10,10,10,23,11,29,0.00,0,,242
2013-9-18,85,66,47,51,47,43,93,58,23,29.89,29.83,29.77,10,10,10,18,6,23,0.00,0,,202
2013-9-19,88,67,45,56,48,40,93,56,19,29.86,29.79,29.71,10,10,2,14,5,16,0.00,0,,206
2013-9-20,80,61,42,61,53,43,100,73,45,29.82,29.78,29.75,10,9,2,23,11,29,0.00,3,,221
2013-9-21,71,62,53,61,59,51,100,79,57,29.87,29.81,29.77,10,8,0,22,11,25,0.82,6,Fog-Rain,218
2013-9-22,74,60,45,53,49,45,100,72,44,29.98,29.93,29.88,10,7,0,20,4,41,0.00,0,Fog,267
2013-9-23,81,66,50,58,54,48,96,68,39,30.01,29.95,29.89,10,10,10,18,5,21,0.00,0,,220
2013-9-24,80,66,52,56,51,46,93,64,35,29.95,29.89,29.84,10,10,10,29,14,36,0.00,0,,268
2013-9-25,74,62,49,49,45,40,83,57,31,29.91,29.85,29.78,10,10,10,30,8,37,0.00,0,,285
2013-9-26,78,61,43,45,38,31,80,50,19,29.96,29.87,29.82,10,10,10,17,8,23,0.00,0,,290
2013-9-27,78,63,48,41,35,32,64,43,21,30.07,30.02,29.97,10,10,10,17,9,33,0.00,0,,307
2013-9-28,81,63,45,55,43,33,86,53,19,30.06,30.02,29.97,10,10,10,22,9,,0.00,0,,278
2013-9-29,73,63,53,61,57,51,93,77,61,30.10,30.05,30.01,10,10,10,17,9,21,T,6,,222
2013-9-30,72,63,54,63,60,44,100,81,62,30.06,30.02,29.94,10,10,7,15,9,26,0.02,6,,205